Hesperides — EANN — position and weather

sailwx.info

Track history (hours):
 
Tides and Currents Weather Stations Pressure Air Temp Water Temp Dewpoint Dewpoint Depression Visibility Wind Speed Wind Dir Waves Ship Positions

Hesperides

Last reported at 2017-Feb-22 04:33 UTC. Time now 2017-Feb-23 00:18 UTC.
Position N 27°58' W 015°23'.

Length 122 m; draft 7.3 m.

Type: Tanker. MMSI: 224462000.

Date/timePositionNaut miles runAvg speedWind from/ knotsBaromVisibWave heightAir tempDewpointWater temp
2017-Feb-22 04:33N 27°58' W 015°23'5 5.0
2017-Feb-22 03:33N 28°03' W 015°21'9 9.3
2017-Feb-22 02:33N 28°12' W 015°23'9 9.0
2017-Feb-22 01:33N 28°15' W 015°33'9 8.7
2017-Feb-22 00:34N 28°18' W 015°42'9 8.8
2017-Feb-21 23:34N 28°21' W 015°51'9 8.9
2017-Feb-21 22:34N 28°24' W 016°01'9 9.0
2017-Feb-21 21:32N 28°28' W 016°10'3 0.3
2017-Feb-21 11:18N 28°29' W 016°13'0 0.0
2017-Feb-21 10:18N 28°29' W 016°13'0 0.0
2017-Feb-21 09:06N 28°29' W 016°13'0 0.0
2017-Feb-21 08:24N 28°29' W 016°13'0 0.0
2017-Feb-21 07:24N 28°29' W 016°13'0 0.0
2017-Feb-21 06:24N 28°29' W 016°13'0 0.1
2017-Feb-21 00:33N 28°29' W 016°14'7 7.1
2017-Feb-20 23:33N 28°24' W 016°08'8 8.0
2017-Feb-20 22:33N 28°20' W 016°00'10 9.5
2017-Feb-20 21:33N 28°21' W 015°50'9 8.5
2017-Feb-20 20:33N 28°21' W 015°40'9 8.5
2017-Feb-20 19:33N 28°17' W 015°32'8 8.1
2017-Feb-20 18:33N 28°12' W 015°24'7 7.0
2017-Feb-20 17:33N 28°06' W 015°21'7 7.2
2017-Feb-20 16:33N 27°59' W 015°20'2 2.3
2017-Feb-20 15:33N 27°59' W 015°23'0 0.0
2017-Feb-20 14:33N 27°59' W 015°23'0 0.0
2017-Feb-20 13:33N 27°59' W 015°23'0 0.0
2017-Feb-20 12:32N 27°59' W 015°23'0 0.0
2017-Feb-20 11:32N 27°59' W 015°23'0 0.0
2017-Feb-20 10:33N 27°59' W 015°23'0 0.0
2017-Feb-20 09:33N 27°59' W 015°23'  
2017-Feb-17 07:33N 28°29' W 016°14'7 7.3
2017-Feb-17 06:33N 28°25' W 016°06'7 7.4
2017-Feb-17 05:34N 28°23' W 015°58'8 7.8
2017-Feb-17 04:33N 28°21' W 015°49'8 8.1
2017-Feb-17 03:33N 28°19' W 015°41'8 8.2
2017-Feb-17 02:34N 28°17' W 015°32'8 8.1
2017-Feb-17 01:33N 28°14' W 015°23'8 7.9
2017-Feb-17 00:33N 28°12' W 015°14'8 8.1
2017-Feb-16 23:33N 28°09' W 015°06'8 8.1
2017-Feb-16 22:33N 28°07' W 014°57'8 8.1
2017-Feb-16 21:33N 28°04' W 014°48'8 8.0
2017-Feb-16 20:32N 28°02' W 014°39'8 8.0
2017-Feb-16 19:33N 28°01' W 014°30'9 8.6
2017-Feb-16 18:33N 28°01' W 014°21'8 8.2
2017-Feb-16 17:33N 28°04' W 014°12'8 8.4
2017-Feb-16 16:33N 28°08' W 014°03'9 8.7
2017-Feb-16 15:33N 28°12' W 013°55'9 8.9
2017-Feb-16 14:32N 28°19' W 013°48'9 9.2
2017-Feb-16 13:32N 28°26' W 013°42'9 9.3
2017-Feb-16 12:31N 28°34' W 013°36'9 9.1
2017-Feb-16 11:32N 28°42' W 013°31'10 9.4
2017-Feb-16 10:31N 28°50' W 013°25'9 9.6
2017-Feb-16 09:33N 28°57' W 013°18'9 8.9
2017-Feb-16 08:32N 29°03' W 013°11'9 9.2
2017-Feb-16 07:33N 29°08' W 013°01'9 9.4
2017-Feb-16 06:33N 29°12' W 012°52'9 9.2
2017-Feb-16 05:33N 29°16' W 012°42'140 9.3
2017-Feb-15 14:28N 30°16' W 010°16'163 3.2
2017-Feb-13 12:04N 29°07' W 013°06'5 9.3
2017-Feb-13 11:31N 29°04' W 013°11'10 9.2
2017-Feb-13 10:26N 28°60' W 013°21'8 9.1
2017-Feb-13 09:31N 28°55' W 013°29'11 9.3
2017-Feb-13 08:17N 28°50' W 013°41'50 8.6
2017-Feb-13 02:32N 28°46' W 014°37'9 8.8
2017-Feb-13 01:33N 28°40' W 014°43'9 8.7
2017-Feb-13 00:33N 28°33' W 014°49'8 8.4
2017-Feb-12 23:33N 28°27' W 014°56'8 8.3
2017-Feb-12 22:33N 28°20' W 015°02'8 8.2
2017-Feb-12 21:33N 28°15' W 015°08'8 8.2
2017-Feb-12 20:33N 28°10' W 015°16'8 7.7
2017-Feb-12 19:33N 28°07' W 015°24'0 0.3
2017-Feb-12 18:33N 28°08' W 015°24'0 0.0
2017-Feb-12 17:33N 28°08' W 015°24'0 0.0
2017-Feb-12 16:24N 28°08' W 015°24'0 0.0
2017-Feb-12 15:24N 28°08' W 015°24'0 0.0
2017-Feb-12 14:27N 28°08' W 015°24'0 0.0
2017-Feb-12 13:24N 28°08' W 015°24'1 0.6
2017-Feb-12 12:33N 28°07' W 015°24'4 4.4
2017-Feb-12 11:33N 28°08' W 015°20'3 3.2
2017-Feb-12 10:33N 28°11' W 015°18'2 1.6
2017-Feb-12 09:33N 28°10' W 015°18'7 6.9
2017-Feb-12 08:33N 28°03' W 015°16'7 7.3
2017-Feb-12 07:33N 27°56' W 015°16'7 6.9
2017-Feb-12 06:33N 27°49' W 015°19'  
Track history (hours):
 
Tides and Currents Weather Stations Pressure Air Temp Water Temp Dewpoint Dewpoint Depression Visibility Wind Speed Wind Dir Waves Ship Positions

Hesperides

Last reported at 2017-Feb-22 04:33 UTC. Time now 2017-Feb-23 00:18 UTC.
Position N 27°58' W 015°23'.

Length 122 m; draft 7.3 m.

Type: Tanker. MMSI: 224462000.

Date/timePositionNaut miles runAvg speedWind from/ knotsBaromVisibWave heightAir tempDewpointWater temp
2017-Feb-22 04:33N 27°58' W 015°23'5 5.0
2017-Feb-22 03:33N 28°03' W 015°21'9 9.3
2017-Feb-22 02:33N 28°12' W 015°23'9 9.0
2017-Feb-22 01:33N 28°15' W 015°33'9 8.7
2017-Feb-22 00:34N 28°18' W 015°42'9 8.8
2017-Feb-21 23:34N 28°21' W 015°51'9 8.9
2017-Feb-21 22:34N 28°24' W 016°01'9 9.0
2017-Feb-21 21:32N 28°28' W 016°10'3 0.3
2017-Feb-21 11:18N 28°29' W 016°13'0 0.0
2017-Feb-21 10:18N 28°29' W 016°13'0 0.0
2017-Feb-21 09:06N 28°29' W 016°13'0 0.0
2017-Feb-21 08:24N 28°29' W 016°13'0 0.0
2017-Feb-21 07:24N 28°29' W 016°13'0 0.0
2017-Feb-21 06:24N 28°29' W 016°13'0 0.1
2017-Feb-21 00:33N 28°29' W 016°14'7 7.1
2017-Feb-20 23:33N 28°24' W 016°08'8 8.0
2017-Feb-20 22:33N 28°20' W 016°00'10 9.5
2017-Feb-20 21:33N 28°21' W 015°50'9 8.5
2017-Feb-20 20:33N 28°21' W 015°40'9 8.5
2017-Feb-20 19:33N 28°17' W 015°32'8 8.1
2017-Feb-20 18:33N 28°12' W 015°24'7 7.0
2017-Feb-20 17:33N 28°06' W 015°21'7 7.2
2017-Feb-20 16:33N 27°59' W 015°20'2 2.3
2017-Feb-20 15:33N 27°59' W 015°23'0 0.0
2017-Feb-20 14:33N 27°59' W 015°23'0 0.0
2017-Feb-20 13:33N 27°59' W 015°23'0 0.0
2017-Feb-20 12:32N 27°59' W 015°23'0 0.0
2017-Feb-20 11:32N 27°59' W 015°23'0 0.0
2017-Feb-20 10:33N 27°59' W 015°23'0 0.0
2017-Feb-20 09:33N 27°59' W 015°23'  
2017-Feb-17 07:33N 28°29' W 016°14'7 7.3
2017-Feb-17 06:33N 28°25' W 016°06'7 7.4
2017-Feb-17 05:34N 28°23' W 015°58'8 7.8
2017-Feb-17 04:33N 28°21' W 015°49'8 8.1
2017-Feb-17 03:33N 28°19' W 015°41'8 8.2
2017-Feb-17 02:34N 28°17' W 015°32'8 8.1
2017-Feb-17 01:33N 28°14' W 015°23'8 7.9
2017-Feb-17 00:33N 28°12' W 015°14'8 8.1
2017-Feb-16 23:33N 28°09' W 015°06'8 8.1
2017-Feb-16 22:33N 28°07' W 014°57'8 8.1
2017-Feb-16 21:33N 28°04' W 014°48'8 8.0
2017-Feb-16 20:32N 28°02' W 014°39'8 8.0
2017-Feb-16 19:33N 28°01' W 014°30'9 8.6
2017-Feb-16 18:33N 28°01' W 014°21'8 8.2
2017-Feb-16 17:33N 28°04' W 014°12'8 8.4
2017-Feb-16 16:33N 28°08' W 014°03'9 8.7
2017-Feb-16 15:33N 28°12' W 013°55'9 8.9
2017-Feb-16 14:32N 28°19' W 013°48'9 9.2
2017-Feb-16 13:32N 28°26' W 013°42'9 9.3
2017-Feb-16 12:31N 28°34' W 013°36'9 9.1
2017-Feb-16 11:32N 28°42' W 013°31'10 9.4
2017-Feb-16 10:31N 28°50' W 013°25'9 9.6
2017-Feb-16 09:33N 28°57' W 013°18'9 8.9
2017-Feb-16 08:32N 29°03' W 013°11'9 9.2
2017-Feb-16 07:33N 29°08' W 013°01'9 9.4
2017-Feb-16 06:33N 29°12' W 012°52'9 9.2
2017-Feb-16 05:33N 29°16' W 012°42'140 9.3
2017-Feb-15 14:28N 30°16' W 010°16'163 3.2
2017-Feb-13 12:04N 29°07' W 013°06'5 9.3
2017-Feb-13 11:31N 29°04' W 013°11'10 9.2
2017-Feb-13 10:26N 28°60' W 013°21'8 9.1
2017-Feb-13 09:31N 28°55' W 013°29'11 9.3
2017-Feb-13 08:17N 28°50' W 013°41'50 8.6
2017-Feb-13 02:32N 28°46' W 014°37'9 8.8
2017-Feb-13 01:33N 28°40' W 014°43'9 8.7
2017-Feb-13 00:33N 28°33' W 014°49'8 8.4
2017-Feb-12 23:33N 28°27' W 014°56'8 8.3
2017-Feb-12 22:33N 28°20' W 015°02'8 8.2
2017-Feb-12 21:33N 28°15' W 015°08'8 8.2
2017-Feb-12 20:33N 28°10' W 015°16'8 7.7
2017-Feb-12 19:33N 28°07' W 015°24'0 0.3
2017-Feb-12 18:33N 28°08' W 015°24'0 0.0
2017-Feb-12 17:33N 28°08' W 015°24'0 0.0
2017-Feb-12 16:24N 28°08' W 015°24'0 0.0
2017-Feb-12 15:24N 28°08' W 015°24'0 0.0
2017-Feb-12 14:27N 28°08' W 015°24'0 0.0
2017-Feb-12 13:24N 28°08' W 015°24'1 0.6
2017-Feb-12 12:33N 28°07' W 015°24'4 4.4
2017-Feb-12 11:33N 28°08' W 015°20'3 3.2
2017-Feb-12 10:33N 28°11' W 015°18'2 1.6
2017-Feb-12 09:33N 28°10' W 015°18'7 6.9
2017-Feb-12 08:33N 28°03' W 015°16'7 7.3
2017-Feb-12 07:33N 27°56' W 015°16'7 6.9
2017-Feb-12 06:33N 27°49' W 015°19'  

Dump ship's entire track history